Hauptseite
METAR-TAF:

METAR-TAF

Flughäfen :

Umiujaq, Québec, Kanada

Breite: 56-32N, Länge: 076-31W, Höhe: 71 m

Beobachtung

Neuester Wetterbericht von vor 51 Minuten, um 13:00 UTC
Wind 11 kt aus Nordwest
Temperatur -6°C
Luftfeuchtigkeit 93%
Luftdruck 1018 hPa
Sichtweite: 19.3 km
Geschlossene Wolkendecke in der Höhe von 500 ft
Schnee leicht

METAR: CYMU 221300Z 32011KT 12SM -SN OVC005 M06/M07 A3005 RMK ST8 SLP183

Zeit: 09:51 (13:51 UTC)


TAF: fehlend

Wetterbeobachtungen und Prognosen von mehr als 4000 Flughäfen (METAR und TAF Bericht).

Die verfügbaren Stationen werden durch gelbe und rote Markierungen auf der Karte dargestellt.

Führen Sie die Maus auf sie, um den Namen der Station zu sehen.

Darauf klicken, um die Beobachtung von Wetterbeobachtungen und Prognosen zu sehen.

Um die Karte zu ändern : klicken Sie auf den grünen Tasten mit einem schwarzen Kreuz Zum Vergrößern, auf den grünen Button mit einem Gedankenstrich zu verkleinern, oder auf die grünen Pfeile für benachbarte Karten.


METAR-TAF: